Terminal Aerodrome Forecast
Issued by NWS

Home | Current Version | Previous Version | Text Only | Print | Product List | Glossary On
Versions: 1 2 3 4 5 6 7 8 9 10 11 12 13 14 15 16 17 18 19 20 21 22
000
FTAK31 PAFA 250252 AAA
TAFAMC
TAF AMD
PAMC 250252Z 2503/2524 00000KT P6SM VCSH SCT015 BKN080
     FM250600 VRB03KT 6SM -RA BR OVC015
     FM250800 12003KT 4SM -RA BR OVC010
     FM252100 25003KT 6SM -RA BR OVC015=

USA.gov is the U.S. government's official web portal to all federal, state and local government web resources and services.